Time,TemperatureF,DewpointF,PressureIn,WindDirection,WindDirectionDegrees,WindSpeedMPH,WindSpeedGustMPH,Humidity,HourlyPrecipIn,Conditions,Clouds,dailyrainin,SoftwareType,DateUTC
2013-01-03 10:52:00,89.6,74.4,29.56,SSE,158,2.5,2.5,61,0.00,,,0.00,VWS V14.01,2013-01-03 00:52:00,
2013-01-03 10:57:00,89.6,74.4,29.56,East,90,0.0,0.0,61,0.00,,,0.00,VWS V14.01,2013-01-03 00:57:00,
2013-01-03 11:02:00,89.8,74.6,29.56,East,90,1.6,3.6,61,0.00,,,0.00,VWS V14.01,2013-01-03 01:02:00,
2013-01-03 11:07:00,90.1,74.9,29.56,SE,135,1.6,1.6,61,0.00,,,0.00,VWS V14.01,2013-01-03 01:07:00,
2013-01-03 11:13:00,90.1,74.9,29.56,SSE,158,2.9,2.9,61,0.00,,,0.00,VWS V14.01,2013-01-03 01:13:00,
2013-01-03 11:18:00,90.0,74.2,29.56,SE,135,2.0,2.2,60,0.00,,,0.00,VWS V14.01,2013-01-03 01:18:00,
2013-01-03 11:23:00,90.1,74.4,29.53,ESE,112,0.0,0.0,60,0.00,,,0.00,VWS V14.01,2013-01-03 01:23:00,
2013-01-03 11:28:00,90.0,73.7,29.53,SE,135,4.7,4.7,59,0.00,,,0.00,VWS V14.01,2013-01-03 01:28:00,
2013-01-03 11:33:00,90.5,74.7,29.53,SE,135,0.0,1.1,60,0.00,,,0.00,VWS V14.01,2013-01-03 01:33:00,
2013-01-03 11:38:00,90.9,74.6,29.53,East,90,5.4,5.4,59,0.00,,,0.00,VWS V14.01,2013-01-03 01:38:00,
2013-01-03 11:43:00,91.0,74.2,29.53,East,90,0.0,2.5,58,0.00,,,0.00,VWS V14.01,2013-01-03 01:43:00,
2013-01-03 11:48:00,91.2,74.4,29.53,ESE,112,2.2,2.7,58,0.00,,,0.00,VWS V14.01,2013-01-03 01:48:00,
2013-01-03 11:53:00,91.6,74.7,29.53,SE,135,2.5,2.5,58,0.00,,,0.00,VWS V14.01,2013-01-03 01:53:00,
2013-01-03 11:58:00,91.4,74.0,29.53,ESE,112,1.3,2.9,57,0.00,,,0.00,VWS V14.01,2013-01-03 01:58:00,
2013-01-03 12:03:00,91.8,74.4,29.53,SE,135,3.6,3.6,57,0.00,,,0.00,VWS V14.01,2013-01-03 02:03:00,
2013-01-03 12:08:00,91.8,73.8,29.53,NE,45,2.7,2.7,56,0.00,,,0.00,VWS V14.01,2013-01-03 02:08:00,
2013-01-03 12:13:00,91.9,74.0,29.53,East,90,1.1,2.9,56,0.00,,,0.00,VWS V14.01,2013-01-03 02:13:00,
2013-01-03 12:18:00,91.8,72.2,29.53,East,90,3.6,3.6,53,0.00,,,0.00,VWS V14.01,2013-01-03 02:18:00,
2013-01-03 12:23:00,91.9,74.5,29.53,South,180,1.6,1.6,57,0.00,,,0.00,VWS V14.01,2013-01-03 02:23:00,
2013-01-03 12:28:00,91.9,74.5,29.53,ESE,112,1.6,1.6,57,0.00,,,0.00,VWS V14.01,2013-01-03 02:28:00,
2013-01-03 12:33:00,91.9,74.0,29.53,ESE,112,3.8,5.4,56,0.00,,,0.00,VWS V14.01,2013-01-03 02:33:00,
2013-01-03 12:39:00,91.9,74.0,29.53,ESE,112,3.6,3.6,56,0.00,,,0.00,VWS V14.01,2013-01-03 02:39:00,
2013-01-03 12:44:00,91.6,73.1,29.53,East,90,4.3,4.3,55,0.00,,,0.00,VWS V14.01,2013-01-03 02:44:00,
2013-01-03 12:49:00,91.9,73.5,29.53,SE,135,7.2,7.2,55,0.00,,,0.00,VWS V14.01,2013-01-03 02:49:00,
2013-01-03 12:54:00,92.3,73.8,29.53,NE,45,2.0,3.4,55,0.00,,,0.00,VWS V14.01,2013-01-03 02:54:00,
2013-01-03 12:59:00,92.3,73.3,29.53,NE,45,0.0,0.0,54,0.00,,,0.00,VWS V14.01,2013-01-03 02:59:00,
2013-01-03 13:04:00,92.1,72.5,29.53,SSW,202,4.9,4.9,53,0.00,,,0.00,VWS V14.01,2013-01-03 03:04:00,
2013-01-03 13:09:00,92.3,73.3,29.53,SE,135,4.0,4.0,54,0.00,,,0.00,VWS V14.01,2013-01-03 03:09:00,
2013-01-03 13:14:00,91.9,73.5,29.53,East,90,0.0,0.0,55,0.00,,,0.00,VWS V14.01,2013-01-03 03:14:00,
2013-01-03 13:19:00,92.3,73.8,29.53,ESE,112,3.1,3.1,55,0.00,,,0.00,VWS V14.01,2013-01-03 03:19:00,
2013-01-03 13:24:00,92.3,73.8,29.53,East,90,0.0,0.0,55,0.00,,,0.00,VWS V14.01,2013-01-03 03:24:00,
2013-01-03 13:30:00,91.9,74.0,29.53,SE,135,2.5,2.5,56,0.00,,,0.00,VWS V14.01,2013-01-03 03:30:00,
2013-01-03 13:35:00,92.1,74.2,29.53,SE,135,3.6,4.9,56,0.00,,,0.00,VWS V14.01,2013-01-03 03:35:00,
2013-01-03 13:40:00,92.3,74.3,29.53,East,90,3.6,3.6,56,0.00,,,0.00,VWS V14.01,2013-01-03 03:40:00,
2013-01-03 13:46:00,91.6,73.1,29.53,SE,135,4.7,5.4,55,0.00,,,0.00,VWS V14.01,2013-01-03 03:46:00,
2013-01-03 13:51:00,91.6,72.6,29.50,SE,135,1.3,1.3,54,0.00,,,0.00,VWS V14.01,2013-01-03 03:51:00,
2013-01-03 13:56:00,91.8,71.7,29.50,SE,135,4.0,5.4,52,0.00,,,0.00,VWS V14.01,2013-01-03 03:56:00,
2013-01-03 14:01:00,91.8,71.1,29.50,SE,135,4.9,4.9,51,0.00,,,0.00,VWS V14.01,2013-01-03 04:01:00,
2013-01-03 14:06:00,92.1,71.4,29.50,ESE,112,3.8,3.8,51,0.00,,,0.00,VWS V14.01,2013-01-03 04:06:00,
2013-01-03 14:11:00,91.6,70.9,29.50,SSE,158,1.3,1.3,51,0.00,,,0.00,VWS V14.01,2013-01-03 04:11:00,
2013-01-03 14:16:00,91.8,71.1,29.50,East,90,2.7,2.7,51,0.00,,,0.00,VWS V14.01,2013-01-03 04:16:00,
2013-01-03 14:21:00,92.1,72.0,29.50,East,90,0.0,2.0,52,0.00,,,0.00,VWS V14.01,2013-01-03 04:21:00,
2013-01-03 14:26:00,92.3,72.7,29.50,East,90,2.5,2.5,53,0.00,,,0.00,VWS V14.01,2013-01-03 04:26:00,
2013-01-03 14:32:00,92.1,72.0,29.50,East,90,3.6,3.6,52,0.00,,,0.00,VWS V14.01,2013-01-03 04:32:00,
2013-01-03 14:37:00,92.7,71.9,29.50,SE,135,0.9,2.2,51,0.00,,,0.00,VWS V14.01,2013-01-03 04:37:00,
2013-01-03 14:42:00,92.3,72.7,29.50,SE,135,3.4,4.0,53,0.00,,,0.00,VWS V14.01,2013-01-03 04:42:00,
2013-01-03 14:47:00,92.3,72.7,29.50,SE,135,2.9,2.9,53,0.00,,,0.00,VWS V14.01,2013-01-03 04:47:00,
2013-01-03 14:52:00,91.0,72.1,29.50,East,90,2.7,2.7,54,0.00,,,0.00,VWS V14.01,2013-01-03 04:52:00,
2013-01-03 14:57:00,90.3,70.3,29.50,East,90,3.4,3.4,52,0.00,,,0.00,VWS V14.01,2013-01-03 04:57:00,
2013-01-03 15:00:00,90.5,72.1,29.50,East,90,4.0,4.0,55,0.00,,,0.00,VWS V14.01,2013-01-03 05:00:00,
2013-01-03 15:01:00,90.5,72.1,29.50,ESE,112,1.6,4.0,55,0.00,,,0.00,VWS V14.01,2013-01-03 05:01:00,
2013-01-03 15:06:00,90.9,71.4,29.50,SSE,158,6.3,6.3,53,0.00,,,0.00,VWS V14.01,2013-01-03 05:06:00,
2013-01-03 15:11:00,90.1,71.3,29.50,ESE,112,2.5,2.5,54,0.00,,,0.00,VWS V14.01,2013-01-03 05:11:00,
2013-01-03 15:16:00,90.5,71.1,29.50,ESE,112,5.4,5.4,53,0.00,,,0.00,VWS V14.01,2013-01-03 05:16:00,
2013-01-03 15:21:00,90.7,71.2,29.50,SE,135,5.4,5.4,53,0.00,,,0.00,VWS V14.01,2013-01-03 05:21:00,
2013-01-03 15:26:00,90.5,71.1,29.50,ESE,112,2.0,2.5,53,0.00,,,0.00,VWS V14.01,2013-01-03 05:26:00,
2013-01-03 15:31:00,90.0,70.6,29.50,SE,135,3.8,3.8,53,0.00,,,0.00,VWS V14.01,2013-01-03 05:31:00,
2013-01-03 15:36:00,90.1,71.3,29.47,SE,135,2.5,2.5,54,0.00,,,0.00,VWS V14.01,2013-01-03 05:36:00,
2013-01-03 15:41:00,90.0,71.1,29.47,SE,135,2.2,2.7,54,0.00,,,0.00,VWS V14.01,2013-01-03 05:41:00,
2013-01-03 15:46:00,90.0,71.1,29.47,South,180,4.0,4.0,54,0.00,,,0.00,VWS V14.01,2013-01-03 05:46:00,
2013-01-03 15:52:00,90.1,71.3,29.50,East,90,2.7,4.7,54,0.00,,,0.00,VWS V14.01,2013-01-03 05:52:00,
2013-01-03 15:57:00,89.6,70.8,29.50,ENE,68,2.0,2.0,54,0.00,,,0.00,VWS V14.01,2013-01-03 05:57:00,
2013-01-03 16:02:00,89.2,71.0,29.50,NE,45,2.0,2.0,55,0.00,,,0.00,VWS V14.01,2013-01-03 06:02:00,
2013-01-03 16:07:00,89.1,71.3,29.47,SSE,158,2.9,2.9,56,0.00,,,0.00,VWS V14.01,2013-01-03 06:07:00,
2013-01-03 16:12:00,89.2,71.5,29.47,ENE,68,0.0,0.0,56,0.00,,,0.00,VWS V14.01,2013-01-03 06:12:00,
2013-01-03 16:17:00,89.2,71.5,29.47,ENE,68,5.8,5.8,56,0.00,,,0.00,VWS V14.01,2013-01-03 06:17:00,
2013-01-03 16:22:00,88.9,71.7,29.47,East,90,1.6,2.2,57,0.00,,,0.00,VWS V14.01,2013-01-03 06:22:00,
2013-01-03 16:27:00,88.7,71.5,29.47,SE,135,2.0,2.0,57,0.00,,,0.00,VWS V14.01,2013-01-03 06:27:00,
2013-01-03 16:32:00,88.7,71.5,29.47,SSE,158,1.6,1.6,57,0.00,,,0.00,VWS V14.01,2013-01-03 06:32:00,
2013-01-03 16:37:00,88.5,71.3,29.47,SSE,158,2.5,2.5,57,0.00,,,0.00,VWS V14.01,2013-01-03 06:37:00,
2013-01-03 16:42:00,88.7,71.5,29.47,SE,135,2.5,2.5,57,0.00,,,0.00,VWS V14.01,2013-01-03 06:42:00,
2013-01-03 16:47:00,88.7,72.0,29.47,East,90,0.9,0.9,58,0.00,,,0.00,VWS V14.01,2013-01-03 06:47:00,
2013-01-03 16:52:00,88.2,71.5,29.47,SE,135,3.4,3.4,58,0.00,,,0.00,VWS V14.01,2013-01-03 06:52:00,
2013-01-03 16:57:00,88.0,71.4,29.47,SE,135,5.8,5.8,58,0.00,,,0.00,VWS V14.01,2013-01-03 06:57:00,
2013-01-03 17:02:00,87.8,71.2,29.47,SE,135,0.0,0.0,58,0.00,,,0.00,VWS V14.01,2013-01-03 07:02:00,
2013-01-03 17:07:00,87.3,71.2,29.47,SE,135,0.0,2.0,59,0.00,,,0.00,VWS V14.01,2013-01-03 07:07:00,
2013-01-03 17:12:00,87.4,71.4,29.47,NW,315,0.0,4.3,59,0.00,,,0.00,VWS V14.01,2013-01-03 07:12:00,
2013-01-03 17:17:00,87.6,71.5,29.47,SSE,158,2.0,5.4,59,0.00,,,0.00,VWS V14.01,2013-01-03 07:17:00,
2013-01-03 17:23:00,87.3,71.2,29.47,East,90,3.6,3.6,59,0.00,,,0.00,VWS V14.01,2013-01-03 07:23:00,
2013-01-03 17:28:00,87.1,71.0,29.47,SSW,202,1.6,1.6,59,0.00,,,0.00,VWS V14.01,2013-01-03 07:28:00,
2013-01-03 17:33:00,87.1,71.5,29.47,East,90,1.1,1.3,60,0.00,,,0.00,VWS V14.01,2013-01-03 07:33:00,
2013-01-03 17:38:00,87.1,71.5,29.47,NNW,338,0.0,0.0,60,0.00,,,0.00,VWS V14.01,2013-01-03 07:38:00,
2013-01-03 17:43:00,86.9,71.3,29.47,SSE,158,2.5,2.5,60,0.00,,,0.00,VWS V14.01,2013-01-03 07:43:00,
2013-01-03 17:48:00,86.9,71.3,29.47,ENE,68,2.2,2.5,60,0.00,,,0.00,VWS V14.01,2013-01-03 07:48:00,
2013-01-03 17:53:00,86.5,71.5,29.50,East,90,0.9,0.9,61,0.00,,,0.00,VWS V14.01,2013-01-03 07:53:00,
2013-01-03 17:58:00,86.4,71.8,29.50,ESE,112,2.2,2.2,62,0.00,,,0.00,VWS V14.01,2013-01-03 07:58:00,
2013-01-03 18:03:00,86.4,71.8,29.50,SW,225,1.6,1.6,62,0.00,,,0.00,VWS V14.01,2013-01-03 08:03:00,
2013-01-03 18:08:00,86.2,71.6,29.50,SE,135,0.0,0.0,62,0.00,,,0.00,VWS V14.01,2013-01-03 08:08:00,
2013-01-03 18:13:00,86.2,72.1,29.50,SE,135,3.1,3.1,63,0.00,,,0.00,VWS V14.01,2013-01-03 08:13:00,
2013-01-03 18:18:00,86.2,72.1,29.50,SSW,202,0.0,2.0,63,0.00,,,0.00,VWS V14.01,2013-01-03 08:18:00,
2013-01-03 18:23:00,85.8,72.2,29.50,SSW,202,3.8,3.8,64,0.00,,,0.00,VWS V14.01,2013-01-03 08:23:00,
2013-01-03 18:28:00,85.6,72.1,29.50,ESE,112,0.0,1.3,64,0.00,,,0.00,VWS V14.01,2013-01-03 08:28:00,
2013-01-03 18:34:00,85.5,71.9,29.50,ESE,112,0.0,2.0,64,0.00,,,0.00,VWS V14.01,2013-01-03 08:34:00,
2013-01-03 18:39:00,85.5,72.4,29.50,ESE,112,0.0,0.0,65,0.00,,,0.00,VWS V14.01,2013-01-03 08:39:00,
2013-01-03 18:44:00,85.3,72.2,29.50,East,90,1.1,1.1,65,0.00,,,0.00,VWS V14.01,2013-01-03 08:44:00,
2013-01-03 18:49:00,85.3,72.2,29.50,West,270,0.0,0.9,65,0.00,,,0.00,VWS V14.01,2013-01-03 08:49:00,
2013-01-03 18:54:00,85.3,72.6,29.53,SSE,158,0.0,0.0,66,0.00,,,0.00,VWS V14.01,2013-01-03 08:54:00,
2013-01-03 18:59:00,85.3,72.6,29.53,SE,135,0.0,0.0,66,0.00,,,0.00,VWS V14.01,2013-01-03 08:59:00,
2013-01-03 19:04:00,85.3,72.6,29.53,SE,135,2.7,2.7,66,0.00,,,0.00,VWS V14.01,2013-01-03 09:04:00,
2013-01-03 19:09:00,85.1,72.5,29.53,SSW,202,0.0,0.0,66,0.00,,,0.00,VWS V14.01,2013-01-03 09:09:00,
2013-01-03 19:14:00,84.9,72.3,29.53,SE,135,0.9,1.1,66,0.00,,,0.00,VWS V14.01,2013-01-03 09:14:00,
2013-01-03 19:19:00,84.7,72.1,29.53,SW,225,2.0,2.0,66,0.00,,,0.00,VWS V14.01,2013-01-03 09:19:00,
2013-01-03 19:24:00,84.2,72.1,29.53,East,90,2.5,2.5,67,0.00,,,0.00,VWS V14.01,2013-01-03 09:24:00,
2013-01-03 19:29:00,84.4,71.8,29.53,South,180,2.0,3.6,66,0.00,,,0.00,VWS V14.01,2013-01-03 09:29:00,
2013-01-03 19:34:00,84.4,71.8,29.53,East,90,1.1,1.1,66,0.00,,,0.00,VWS V14.01,2013-01-03 09:34:00,
2013-01-03 19:40:00,84.4,71.8,29.53,South,180,0.0,0.0,66,0.00,,,0.00,VWS V14.01,2013-01-03 09:40:00,
2013-01-03 19:45:00,84.2,71.6,29.53,South,180,1.3,1.3,66,0.00,,,0.00,VWS V14.01,2013-01-03 09:45:00,
2013-01-03 19:50:00,84.0,71.9,29.53,SSW,202,2.9,3.1,67,0.00,,,0.00,VWS V14.01,2013-01-03 09:50:00,
2013-01-03 19:55:00,83.8,71.7,29.53,South,180,0.0,1.3,67,0.00,,,0.00,VWS V14.01,2013-01-03 09:55:00,